sensor_id;sensor_type;location;lat;lon;timestamp;temperature;humidity
22069;DHT22;13887;57.196;-2.100;2022-11-20T00:01:28;9.18;83.32
22069;DHT22;13887;57.196;-2.100;2022-11-20T00:03:56;9.17;83.20
22069;DHT22;13887;57.196;-2.100;2022-11-20T00:06:25;9.17;83.20
22069;DHT22;13887;57.196;-2.100;2022-11-20T00:08:55;9.18;83.09
22069;DHT22;13887;57.196;-2.100;2022-11-20T00:11:24;9.18;83.13
22069;DHT22;13887;57.196;-2.100;2022-11-20T00:13:53;9.15;83.09
22069;DHT22;13887;57.196;-2.100;2022-11-20T00:16:22;9.15;83.16
22069;DHT22;13887;57.196;-2.100;2022-11-20T00:18:49;9.19;82.87
22069;DHT22;13887;57.196;-2.100;2022-11-20T00:21:23;9.17;83.01
22069;DHT22;13887;57.196;-2.100;2022-11-20T00:23:51;9.17;83.07
22069;DHT22;13887;57.196;-2.100;2022-11-20T00:26:22;9.16;83.02
22069;DHT22;13887;57.196;-2.100;2022-11-20T00:28:59;9.15;82.82
22069;DHT22;13887;57.196;-2.100;2022-11-20T00:31:27;9.18;82.77
22069;DHT22;13887;57.196;-2.100;2022-11-20T00:33:54;9.15;82.97
22069;DHT22;13887;57.196;-2.100;2022-11-20T00:36:23;9.17;83.10
22069;DHT22;13887;57.196;-2.100;2022-11-20T00:38:57;9.16;83.16
22069;DHT22;13887;57.196;-2.100;2022-11-20T00:41:26;9.14;83.13
22069;DHT22;13887;57.196;-2.100;2022-11-20T00:43:54;9.16;82.81
22069;DHT22;13887;57.196;-2.100;2022-11-20T00:46:23;9.15;82.95
22069;DHT22;13887;57.196;-2.100;2022-11-20T00:48:51;9.17;83.12
22069;DHT22;13887;57.196;-2.100;2022-11-20T00:51:20;9.20;83.24
22069;DHT22;13887;57.196;-2.100;2022-11-20T00:53:47;9.17;83.15
22069;DHT22;13887;57.196;-2.100;2022-11-20T00:56:16;9.14;83.26
22069;DHT22;13887;57.196;-2.100;2022-11-20T00:58:45;9.18;83.05
22069;DHT22;13887;57.196;-2.100;2022-11-20T01:01:15;9.16;83.06
22069;DHT22;13887;57.196;-2.100;2022-11-20T01:03:45;9.15;82.91
22069;DHT22;13887;57.196;-2.100;2022-11-20T01:06:15;9.15;83.01
22069;DHT22;13887;57.196;-2.100;2022-11-20T01:08:43;9.17;82.90
22069;DHT22;13887;57.196;-2.100;2022-11-20T01:11:35;9.18;82.70
22069;DHT22;13887;57.196;-2.100;2022-11-20T01:14:04;9.16;82.94
22069;DHT22;13887;57.196;-2.100;2022-11-20T01:16:37;9.17;82.68
22069;DHT22;13887;57.196;-2.100;2022-11-20T01:19:06;9.18;82.64
22069;DHT22;13887;57.196;-2.100;2022-11-20T01:21:36;9.18;82.43
22069;DHT22;13887;57.196;-2.100;2022-11-20T01:24:05;9.18;82.56
22069;DHT22;13887;57.196;-2.100;2022-11-20T01:26:35;9.15;82.55
22069;DHT22;13887;57.196;-2.100;2022-11-20T01:29:04;9.19;82.81
22069;DHT22;13887;57.196;-2.100;2022-11-20T01:31:33;9.18;82.53
22069;DHT22;13887;57.196;-2.100;2022-11-20T01:34:03;9.17;82.49
22069;DHT22;13887;57.196;-2.100;2022-11-20T01:36:32;9.17;82.51
22069;DHT22;13887;57.196;-2.100;2022-11-20T01:39:02;9.19;82.49
22069;DHT22;13887;57.196;-2.100;2022-11-20T01:41:31;9.17;82.57
22069;DHT22;13887;57.196;-2.100;2022-11-20T01:44:20;9.19;82.73
22069;DHT22;13887;57.196;-2.100;2022-11-20T01:47:02;9.16;82.80
22069;DHT22;13887;57.196;-2.100;2022-11-20T01:49:37;9.17;82.66
22069;DHT22;13887;57.196;-2.100;2022-11-20T01:52:21;9.18;82.26
22069;DHT22;13887;57.196;-2.100;2022-11-20T01:55:09;9.16;82.45
22069;DHT22;13887;57.196;-2.100;2022-11-20T01:57:38;9.19;82.58
22069;DHT22;13887;57.196;-2.100;2022-11-20T02:00:13;9.21;82.63
22069;DHT22;13887;57.196;-2.100;2022-11-20T02:02:46;9.20;82.49
22069;DHT22;13887;57.196;-2.100;2022-11-20T02:07:57;9.21;82.68
22069;DHT22;13887;57.196;-2.100;2022-11-20T02:10:27;9.22;82.62
22069;DHT22;13887;57.196;-2.100;2022-11-20T02:12:54;9.19;82.61
22069;DHT22;13887;57.196;-2.100;2022-11-20T02:15:40;9.22;82.45
22069;DHT22;13887;57.196;-2.100;2022-11-20T02:18:07;9.20;82.58
22069;DHT22;13887;57.196;-2.100;2022-11-20T02:20:36;9.20;82.51
22069;DHT22;13887;57.196;-2.100;2022-11-20T02:23:12;9.18;82.55
22069;DHT22;13887;57.196;-2.100;2022-11-20T02:25:41;9.21;82.69
22069;DHT22;13887;57.196;-2.100;2022-11-20T02:28:08;9.22;82.43
22069;DHT22;13887;57.196;-2.100;2022-11-20T02:30:36;9.22;82.58
22069;DHT22;13887;57.196;-2.100;2022-11-20T02:33:02;9.21;82.62
22069;DHT22;13887;57.196;-2.100;2022-11-20T02:37:59;9.21;82.34
22069;DHT22;13887;57.196;-2.100;2022-11-20T02:40:27;9.22;82.36
22069;DHT22;13887;57.196;-2.100;2022-11-20T02:42:55;9.20;82.29
22069;DHT22;13887;57.196;-2.100;2022-11-20T02:45:23;9.22;82.30
22069;DHT22;13887;57.196;-2.100;2022-11-20T02:47:51;9.20;82.13
22069;DHT22;13887;57.196;-2.100;2022-11-20T02:50:18;9.20;82.27
22069;DHT22;13887;57.196;-2.100;2022-11-20T02:52:45;9.22;82.39
22069;DHT22;13887;57.196;-2.100;2022-11-20T02:55:12;9.21;82.08
22069;DHT22;13887;57.196;-2.100;2022-11-20T02:57:39;9.19;82.12
22069;DHT22;13887;57.196;-2.100;2022-11-20T03:00:06;9.19;82.21
22069;DHT22;13887;57.196;-2.100;2022-11-20T03:02:34;9.23;82.45
22069;DHT22;13887;57.196;-2.100;2022-11-20T03:05:01;9.19;82.46
22069;DHT22;13887;57.196;-2.100;2022-11-20T03:07:28;9.19;82.42
22069;DHT22;13887;57.196;-2.100;2022-11-20T03:09:55;9.20;82.42
22069;DHT22;13887;57.196;-2.100;2022-11-20T03:12:21;9.19;82.26
22069;DHT22;13887;57.196;-2.100;2022-11-20T03:14:48;9.20;82.48
22069;DHT22;13887;57.196;-2.100;2022-11-20T03:17:18;9.19;82.54
22069;DHT22;13887;57.196;-2.100;2022-11-20T03:19:45;9.20;82.68
22069;DHT22;13887;57.196;-2.100;2022-11-20T03:22:12;9.21;82.52
22069;DHT22;13887;57.196;-2.100;2022-11-20T03:24:39;9.19;82.66
22069;DHT22;13887;57.196;-2.100;2022-11-20T03:27:06;9.20;82.69
22069;DHT22;13887;57.196;-2.100;2022-11-20T03:29:32;9.18;82.68
22069;DHT22;13887;57.196;-2.100;2022-11-20T03:31:59;9.18;82.83
22069;DHT22;13887;57.196;-2.100;2022-11-20T03:34:26;9.18;82.79
22069;DHT22;13887;57.196;-2.100;2022-11-20T03:36:53;9.16;82.82
22069;DHT22;13887;57.196;-2.100;2022-11-20T03:39:19;9.20;82.90
22069;DHT22;13887;57.196;-2.100;2022-11-20T03:41:47;9.20;82.97
22069;DHT22;13887;57.196;-2.100;2022-11-20T03:44:14;9.18;82.60
22069;DHT22;13887;57.196;-2.100;2022-11-20T03:46:40;9.19;82.74
22069;DHT22;13887;57.196;-2.100;2022-11-20T03:49:07;9.20;82.67
22069;DHT22;13887;57.196;-2.100;2022-11-20T03:51:35;9.21;82.65
22069;DHT22;13887;57.196;-2.100;2022-11-20T03:54:07;9.19;82.38
22069;DHT22;13887;57.196;-2.100;2022-11-20T03:56:37;9.19;82.61
22069;DHT22;13887;57.196;-2.100;2022-11-20T03:59:04;9.18;82.56
22069;DHT22;13887;57.196;-2.100;2022-11-20T04:01:34;9.19;82.46
22069;DHT22;13887;57.196;-2.100;2022-11-20T04:04:01;9.19;82.18
22069;DHT22;13887;57.196;-2.100;2022-11-20T04:06:30;9.20;82.23
22069;DHT22;13887;57.196;-2.100;2022-11-20T04:08:59;9.19;82.17
22069;DHT22;13887;57.196;-2.100;2022-11-20T04:11:29;9.16;81.84
22069;DHT22;13887;57.196;-2.100;2022-11-20T04:14:01;9.15;81.84
22069;DHT22;13887;57.196;-2.100;2022-11-20T04:16:30;9.15;81.67
22069;DHT22;13887;57.196;-2.100;2022-11-20T04:18:59;9.12;81.58
22069;DHT22;13887;57.196;-2.100;2022-11-20T04:21:27;9.15;81.81
22069;DHT22;13887;57.196;-2.100;2022-11-20T04:23:54;9.15;81.75
22069;DHT22;13887;57.196;-2.100;2022-11-20T04:26:23;9.15;81.72
22069;DHT22;13887;57.196;-2.100;2022-11-20T04:28:50;9.11;81.46
22069;DHT22;13887;57.196;-2.100;2022-11-20T04:31:22;9.14;81.78
22069;DHT22;13887;57.196;-2.100;2022-11-20T04:33:49;9.15;81.56
22069;DHT22;13887;57.196;-2.100;2022-11-20T04:36:21;9.11;81.78
22069;DHT22;13887;57.196;-2.100;2022-11-20T04:38:59;9.07;81.72
22069;DHT22;13887;57.196;-2.100;2022-11-20T04:41:33;9.05;81.88
22069;DHT22;13887;57.196;-2.100;2022-11-20T04:44:01;9.08;81.96
22069;DHT22;13887;57.196;-2.100;2022-11-20T04:46:38;9.06;81.93
22069;DHT22;13887;57.196;-2.100;2022-11-20T04:49:05;9.05;82.00
22069;DHT22;13887;57.196;-2.100;2022-11-20T04:51:33;9.04;82.02
22069;DHT22;13887;57.196;-2.100;2022-11-20T04:54:00;9.02;82.00
22069;DHT22;13887;57.196;-2.100;2022-11-20T04:56:27;9.03;82.20
22069;DHT22;13887;57.196;-2.100;2022-11-20T04:58:53;9.02;82.15
22069;DHT22;13887;57.196;-2.100;2022-11-20T05:01:22;9.01;82.21
22069;DHT22;13887;57.196;-2.100;2022-11-20T05:03:50;9.02;82.04
22069;DHT22;13887;57.196;-2.100;2022-11-20T05:06:19;9.01;82.09
22069;DHT22;13887;57.196;-2.100;2022-11-20T05:08:46;9.00;82.13
22069;DHT22;13887;57.196;-2.100;2022-11-20T05:11:15;8.97;82.12
22069;DHT22;13887;57.196;-2.100;2022-11-20T05:13:42;8.95;82.38
22069;DHT22;13887;57.196;-2.100;2022-11-20T05:16:14;8.98;82.23
22069;DHT22;13887;57.196;-2.100;2022-11-20T05:18:42;8.97;82.23
22069;DHT22;13887;57.196;-2.100;2022-11-20T05:21:10;8.95;82.29
22069;DHT22;13887;57.196;-2.100;2022-11-20T05:23:38;8.96;82.29
22069;DHT22;13887;57.196;-2.100;2022-11-20T05:26:07;8.94;82.20
22069;DHT22;13887;57.196;-2.100;2022-11-20T05:28:34;8.97;82.11
22069;DHT22;13887;57.196;-2.100;2022-11-20T05:31:09;8.96;82.00
22069;DHT22;13887;57.196;-2.100;2022-11-20T05:33:36;8.94;81.85
22069;DHT22;13887;57.196;-2.100;2022-11-20T05:36:04;8.92;81.87
22069;DHT22;13887;57.196;-2.100;2022-11-20T05:38:31;8.95;81.88
22069;DHT22;13887;57.196;-2.100;2022-11-20T05:41:09;8.92;81.65
22069;DHT22;13887;57.196;-2.100;2022-11-20T05:43:38;8.94;81.61
22069;DHT22;13887;57.196;-2.100;2022-11-20T05:46:06;8.92;81.59
22069;DHT22;13887;57.196;-2.100;2022-11-20T05:48:34;8.93;81.77
22069;DHT22;13887;57.196;-2.100;2022-11-20T05:51:03;8.92;81.81
22069;DHT22;13887;57.196;-2.100;2022-11-20T05:53:32;8.93;81.97
22069;DHT22;13887;57.196;-2.100;2022-11-20T05:56:10;8.93;81.83
22069;DHT22;13887;57.196;-2.100;2022-11-20T05:58:38;8.91;82.07
22069;DHT22;13887;57.196;-2.100;2022-11-20T06:03:35;8.90;81.84
22069;DHT22;13887;57.196;-2.100;2022-11-20T06:06:03;8.90;81.87
22069;DHT22;13887;57.196;-2.100;2022-11-20T06:08:30;8.91;81.85
22069;DHT22;13887;57.196;-2.100;2022-11-20T06:10:57;8.91;81.85
22069;DHT22;13887;57.196;-2.100;2022-11-20T06:13:24;8.89;82.01
22069;DHT22;13887;57.196;-2.100;2022-11-20T06:15:52;8.86;81.89
22069;DHT22;13887;57.196;-2.100;2022-11-20T06:18:19;8.87;81.95
22069;DHT22;13887;57.196;-2.100;2022-11-20T06:20:46;8.92;81.91
22069;DHT22;13887;57.196;-2.100;2022-11-20T06:23:13;8.90;81.98
22069;DHT22;13887;57.196;-2.100;2022-11-20T06:25:41;8.91;81.87
22069;DHT22;13887;57.196;-2.100;2022-11-20T06:28:10;8.89;81.81
22069;DHT22;13887;57.196;-2.100;2022-11-20T06:30:37;8.90;81.94
22069;DHT22;13887;57.196;-2.100;2022-11-20T06:33:04;8.86;81.84
22069;DHT22;13887;57.196;-2.100;2022-11-20T06:35:31;8.86;82.39
22069;DHT22;13887;57.196;-2.100;2022-11-20T06:37:57;8.85;81.92
22069;DHT22;13887;57.196;-2.100;2022-11-20T06:40:24;8.87;81.94
22069;DHT22;13887;57.196;-2.100;2022-11-20T06:42:53;8.89;81.97
22069;DHT22;13887;57.196;-2.100;2022-11-20T06:45:21;8.88;82.12
22069;DHT22;13887;57.196;-2.100;2022-11-20T06:47:48;8.87;81.90
22069;DHT22;13887;57.196;-2.100;2022-11-20T06:50:15;8.87;81.97
22069;DHT22;13887;57.196;-2.100;2022-11-20T06:52:42;8.87;82.00
22069;DHT22;13887;57.196;-2.100;2022-11-20T06:55:09;8.86;82.04
22069;DHT22;13887;57.196;-2.100;2022-11-20T06:57:36;8.87;82.01
22069;DHT22;13887;57.196;-2.100;2022-11-20T07:00:03;8.87;82.38
22069;DHT22;13887;57.196;-2.100;2022-11-20T07:02:30;8.86;82.14
22069;DHT22;13887;57.196;-2.100;2022-11-20T07:04:57;8.87;82.23
22069;DHT22;13887;57.196;-2.100;2022-11-20T07:07:23;8.86;82.11
22069;DHT22;13887;57.196;-2.100;2022-11-20T07:09:50;8.85;82.17
22069;DHT22;13887;57.196;-2.100;2022-11-20T07:12:17;8.86;82.16
22069;DHT22;13887;57.196;-2.100;2022-11-20T07:14:44;8.80;82.29
22069;DHT22;13887;57.196;-2.100;2022-11-20T07:17:11;8.83;82.15
22069;DHT22;13887;57.196;-2.100;2022-11-20T07:19:38;8.85;82.30
22069;DHT22;13887;57.196;-2.100;2022-11-20T07:22:05;8.81;82.29
22069;DHT22;13887;57.196;-2.100;2022-11-20T07:24:32;8.83;82.50
22069;DHT22;13887;57.196;-2.100;2022-11-20T07:26:59;8.82;82.32
22069;DHT22;13887;57.196;-2.100;2022-11-20T07:29:25;8.79;82.19
22069;DHT22;13887;57.196;-2.100;2022-11-20T07:31:53;8.85;82.39
22069;DHT22;13887;57.196;-2.100;2022-11-20T07:34:22;8.80;82.43
22069;DHT22;13887;57.196;-2.100;2022-11-20T07:36:49;8.79;82.58
22069;DHT22;13887;57.196;-2.100;2022-11-20T07:39:16;8.80;82.42
22069;DHT22;13887;57.196;-2.100;2022-11-20T07:41:43;8.76;82.42
22069;DHT22;13887;57.196;-2.100;2022-11-20T07:44:09;8.77;82.39
22069;DHT22;13887;57.196;-2.100;2022-11-20T07:46:36;8.77;82.37
22069;DHT22;13887;57.196;-2.100;2022-11-20T07:49:03;8.76;82.58
22069;DHT22;13887;57.196;-2.100;2022-11-20T07:51:30;8.75;82.44
22069;DHT22;13887;57.196;-2.100;2022-11-20T07:53:57;8.74;82.39
22069;DHT22;13887;57.196;-2.100;2022-11-20T07:56:24;8.72;82.31
22069;DHT22;13887;57.196;-2.100;2022-11-20T07:58:51;8.73;82.41
22069;DHT22;13887;57.196;-2.100;2022-11-20T08:01:17;8.73;82.51
22069;DHT22;13887;57.196;-2.100;2022-11-20T08:03:44;8.72;82.20
22069;DHT22;13887;57.196;-2.100;2022-11-20T08:06:11;8.72;82.20
22069;DHT22;13887;57.196;-2.100;2022-11-20T08:08:38;8.76;82.42
22069;DHT22;13887;57.196;-2.100;2022-11-20T08:11:08;8.72;82.55
22069;DHT22;13887;57.196;-2.100;2022-11-20T08:13:54;8.73;82.44
22069;DHT22;13887;57.196;-2.100;2022-11-20T08:16:57;8.75;82.35
22069;DHT22;13887;57.196;-2.100;2022-11-20T08:19:24;8.72;82.34
22069;DHT22;13887;57.196;-2.100;2022-11-20T08:21:50;8.75;82.38
22069;DHT22;13887;57.196;-2.100;2022-11-20T08:24:17;8.73;82.42
22069;DHT22;13887;57.196;-2.100;2022-11-20T08:26:44;8.74;82.36
22069;DHT22;13887;57.196;-2.100;2022-11-20T08:29:11;8.70;82.41
22069;DHT22;13887;57.196;-2.100;2022-11-20T08:31:38;8.75;82.31
22069;DHT22;13887;57.196;-2.100;2022-11-20T08:34:05;8.72;82.35
22069;DHT22;13887;57.196;-2.100;2022-11-20T08:36:35;8.74;82.29
22069;DHT22;13887;57.196;-2.100;2022-11-20T08:39:03;8.74;82.32
22069;DHT22;13887;57.196;-2.100;2022-11-20T08:41:30;8.77;82.45
22069;DHT22;13887;57.196;-2.100;2022-11-20T08:44:04;8.74;82.63
22069;DHT22;13887;57.196;-2.100;2022-11-20T08:46:33;8.74;82.67
22069;DHT22;13887;57.196;-2.100;2022-11-20T08:49:02;8.75;82.71
22069;DHT22;13887;57.196;-2.100;2022-11-20T08:51:30;8.72;82.55
22069;DHT22;13887;57.196;-2.100;2022-11-20T08:53:56;8.75;82.79
22069;DHT22;13887;57.196;-2.100;2022-11-20T08:56:23;8.75;82.87
22069;DHT22;13887;57.196;-2.100;2022-11-20T08:58:51;8.76;82.81
22069;DHT22;13887;57.196;-2.100;2022-11-20T09:01:38;8.73;82.81
22069;DHT22;13887;57.196;-2.100;2022-11-20T09:04:06;8.75;83.00
22069;DHT22;13887;57.196;-2.100;2022-11-20T09:06:32;8.73;83.07
22069;DHT22;13887;57.196;-2.100;2022-11-20T09:08:59;8.75;82.87
22069;DHT22;13887;57.196;-2.100;2022-11-20T09:11:32;8.74;82.91
22069;DHT22;13887;57.196;-2.100;2022-11-20T09:14:00;8.72;83.20
22069;DHT22;13887;57.196;-2.100;2022-11-20T09:16:29;8.74;83.05
22069;DHT22;13887;57.196;-2.100;2022-11-20T09:18:56;8.73;82.90
22069;DHT22;13887;57.196;-2.100;2022-11-20T09:21:42;8.75;83.03
22069;DHT22;13887;57.196;-2.100;2022-11-20T09:24:09;8.73;82.98
22069;DHT22;13887;57.196;-2.100;2022-11-20T09:26:36;8.73;82.97
22069;DHT22;13887;57.196;-2.100;2022-11-20T09:29:03;8.71;83.12
22069;DHT22;13887;57.196;-2.100;2022-11-20T09:31:30;8.70;83.05
22069;DHT22;13887;57.196;-2.100;2022-11-20T09:33:57;8.68;82.89
22069;DHT22;13887;57.196;-2.100;2022-11-20T09:36:24;8.67;82.97
22069;DHT22;13887;57.196;-2.100;2022-11-20T09:38:50;8.68;82.97
22069;DHT22;13887;57.196;-2.100;2022-11-20T09:46:57;8.65;83.24
22069;DHT22;13887;57.196;-2.100;2022-11-20T09:50:00;8.67;83.26
22069;DHT22;13887;57.196;-2.100;2022-11-20T09:55:01;8.71;83.14
22069;DHT22;13887;57.196;-2.100;2022-11-20T09:57:37;8.72;83.28
22069;DHT22;13887;57.196;-2.100;2022-11-20T10:00:09;8.70;83.38
22069;DHT22;13887;57.196;-2.100;2022-11-20T10:05:18;8.72;83.35
22069;DHT22;13887;57.196;-2.100;2022-11-20T10:10:35;8.72;83.36
22069;DHT22;13887;57.196;-2.100;2022-11-20T10:13:34;8.76;83.50
22069;DHT22;13887;57.196;-2.100;2022-11-20T10:29:18;8.74;83.68
22069;DHT22;13887;57.196;-2.100;2022-11-20T10:32:01;8.72;83.81
22069;DHT22;13887;57.196;-2.100;2022-11-20T10:37:05;8.71;83.80
22069;DHT22;13887;57.196;-2.100;2022-11-20T10:42:31;8.74;83.80
22069;DHT22;13887;57.196;-2.100;2022-11-20T10:45:21;8.74;83.84
22069;DHT22;13887;57.196;-2.100;2022-11-20T10:48:24;8.74;83.93
22069;DHT22;13887;57.196;-2.100;2022-11-20T10:56:49;8.72;84.12
22069;DHT22;13887;57.196;-2.100;2022-11-20T11:01:52;8.76;84.03
22069;DHT22;13887;57.196;-2.100;2022-11-20T11:07:42;8.75;84.19
22069;DHT22;13887;57.196;-2.100;2022-11-20T11:09:53;8.75;84.50
22069;DHT22;13887;57.196;-2.100;2022-11-20T11:12:22;8.77;84.27
22069;DHT22;13887;57.196;-2.100;2022-11-20T11:14:55;8.75;84.52
22069;DHT22;13887;57.196;-2.100;2022-11-20T11:20:17;8.79;84.46
22069;DHT22;13887;57.196;-2.100;2022-11-20T11:22:56;8.79;84.40
22069;DHT22;13887;57.196;-2.100;2022-11-20T11:25:29;8.75;84.53
22069;DHT22;13887;57.196;-2.100;2022-11-20T11:28:01;8.78;84.41
22069;DHT22;13887;57.196;-2.100;2022-11-20T11:30:30;8.78;84.40
22069;DHT22;13887;57.196;-2.100;2022-11-20T11:33:10;8.78;84.36
22069;DHT22;13887;57.196;-2.100;2022-11-20T11:35:50;8.79;84.32
22069;DHT22;13887;57.196;-2.100;2022-11-20T11:38:37;8.81;84.32
22069;DHT22;13887;57.196;-2.100;2022-11-20T11:41:06;8.82;84.37
22069;DHT22;13887;57.196;-2.100;2022-11-20T11:43:36;8.82;84.35
22069;DHT22;13887;57.196;-2.100;2022-11-20T11:46:35;8.83;84.37
22069;DHT22;13887;57.196;-2.100;2022-11-20T11:56:55;8.85;84.54
22069;DHT22;13887;57.196;-2.100;2022-11-20T11:59:47;8.83;84.69
22069;DHT22;13887;57.196;-2.100;2022-11-20T12:05:16;8.85;84.67
22069;DHT22;13887;57.196;-2.100;2022-11-20T12:07:48;8.86;84.58
22069;DHT22;13887;57.196;-2.100;2022-11-20T12:10:22;8.87;84.64
22069;DHT22;13887;57.196;-2.100;2022-11-20T12:12:58;8.87;84.62
22069;DHT22;13887;57.196;-2.100;2022-11-20T12:15:33;8.87;84.74
22069;DHT22;13887;57.196;-2.100;2022-11-20T12:18:00;8.88;84.86
22069;DHT22;13887;57.196;-2.100;2022-11-20T12:20:38;8.87;84.78
22069;DHT22;13887;57.196;-2.100;2022-11-20T12:23:33;8.87;84.90
22069;DHT22;13887;57.196;-2.100;2022-11-20T12:26:10;8.87;84.91
22069;DHT22;13887;57.196;-2.100;2022-11-20T12:29:02;8.87;84.93
22069;DHT22;13887;57.196;-2.100;2022-11-20T12:31:51;8.90;84.94
22069;DHT22;13887;57.196;-2.100;2022-11-20T12:39:42;8.91;84.97
22069;DHT22;13887;57.196;-2.100;2022-11-20T12:51:03;8.95;85.09
22069;DHT22;13887;57.196;-2.100;2022-11-20T13:07:05;8.96;85.42
22069;DHT22;13887;57.196;-2.100;2022-11-20T13:09:36;8.94;85.49
22069;DHT22;13887;57.196;-2.100;2022-11-20T13:12:28;8.93;85.61
22069;DHT22;13887;57.196;-2.100;2022-11-20T13:15:26;8.91;85.71
22069;DHT22;13887;57.196;-2.100;2022-11-20T13:17:59;8.92;85.77
22069;DHT22;13887;57.196;-2.100;2022-11-20T13:20:28;8.90;85.87
22069;DHT22;13887;57.196;-2.100;2022-11-20T13:22:56;8.89;85.90
22069;DHT22;13887;57.196;-2.100;2022-11-20T13:28:04;8.88;86.00
22069;DHT22;13887;57.196;-2.100;2022-11-20T13:30:32;8.87;86.07
22069;DHT22;13887;57.196;-2.100;2022-11-20T13:33:08;8.86;86.15
22069;DHT22;13887;57.196;-2.100;2022-11-20T13:35:40;8.85;86.19
22069;DHT22;13887;57.196;-2.100;2022-11-20T13:38:08;8.85;86.16
22069;DHT22;13887;57.196;-2.100;2022-11-20T13:40:38;8.83;86.25
22069;DHT22;13887;57.196;-2.100;2022-11-20T13:43:23;8.85;86.19
22069;DHT22;13887;57.196;-2.100;2022-11-20T13:46:04;8.83;86.19
22069;DHT22;13887;57.196;-2.100;2022-11-20T13:48:34;8.83;86.24
22069;DHT22;13887;57.196;-2.100;2022-11-20T13:54:06;8.86;86.22
22069;DHT22;13887;57.196;-2.100;2022-11-20T13:57:06;8.86;86.16
22069;DHT22;13887;57.196;-2.100;2022-11-20T14:02:40;8.85;86.25
22069;DHT22;13887;57.196;-2.100;2022-11-20T14:05:19;8.83;86.36
22069;DHT22;13887;57.196;-2.100;2022-11-20T14:07:47;8.83;86.34
22069;DHT22;13887;57.196;-2.100;2022-11-20T14:12:46;8.83;86.45
22069;DHT22;13887;57.196;-2.100;2022-11-20T14:15:34;8.83;86.43
22069;DHT22;13887;57.196;-2.100;2022-11-20T14:18:33;8.82;86.54
22069;DHT22;13887;57.196;-2.100;2022-11-20T14:21:01;8.81;86.48
22069;DHT22;13887;57.196;-2.100;2022-11-20T14:23:29;8.67;86.43
22069;DHT22;13887;57.196;-2.100;2022-11-20T14:25:56;8.32;87.88
22069;DHT22;13887;57.196;-2.100;2022-11-20T14:28:28;8.15;88.60
22069;DHT22;13887;57.196;-2.100;2022-11-20T14:30:56;8.44;87.83
22069;DHT22;13887;57.196;-2.100;2022-11-20T14:33:25;8.60;87.10
22069;DHT22;13887;57.196;-2.100;2022-11-20T14:35:57;8.67;86.74
22069;DHT22;13887;57.196;-2.100;2022-11-20T14:38:28;8.70;86.58
22069;DHT22;13887;57.196;-2.100;2022-11-20T14:41:27;8.71;86.51
22069;DHT22;13887;57.196;-2.100;2022-11-20T14:43:56;8.71;86.47
22069;DHT22;13887;57.196;-2.100;2022-11-20T14:46:24;8.71;86.48
22069;DHT22;13887;57.196;-2.100;2022-11-20T14:48:55;8.70;86.53
22069;DHT22;13887;57.196;-2.100;2022-11-20T14:54:22;8.70;86.48
22069;DHT22;13887;57.196;-2.100;2022-11-20T14:59:29;8.73;86.29
22069;DHT22;13887;57.196;-2.100;2022-11-20T15:02:00;8.72;86.41
22069;DHT22;13887;57.196;-2.100;2022-11-20T15:04:27;8.70;86.37
22069;DHT22;13887;57.196;-2.100;2022-11-20T15:06:56;8.71;86.35
22069;DHT22;13887;57.196;-2.100;2022-11-20T15:09:23;8.68;86.38
22069;DHT22;13887;57.196;-2.100;2022-11-20T15:12:01;8.70;86.26
22069;DHT22;13887;57.196;-2.100;2022-11-20T15:14:30;8.68;86.35
22069;DHT22;13887;57.196;-2.100;2022-11-20T15:16:59;8.68;86.19
22069;DHT22;13887;57.196;-2.100;2022-11-20T15:19:26;8.68;86.11
22069;DHT22;13887;57.196;-2.100;2022-11-20T15:21:53;8.68;86.12
22069;DHT22;13887;57.196;-2.100;2022-11-20T15:24:20;8.68;86.25
22069;DHT22;13887;57.196;-2.100;2022-11-20T15:26:47;8.65;86.19
22069;DHT22;13887;57.196;-2.100;2022-11-20T15:29:15;8.66;86.20
22069;DHT22;13887;57.196;-2.100;2022-11-20T15:31:47;8.63;86.16
22069;DHT22;13887;57.196;-2.100;2022-11-20T15:34:15;8.66;86.08
22069;DHT22;13887;57.196;-2.100;2022-11-20T15:36:42;8.64;86.08
22069;DHT22;13887;57.196;-2.100;2022-11-20T15:39:10;8.63;86.10
22069;DHT22;13887;57.196;-2.100;2022-11-20T15:41:38;8.63;86.06
22069;DHT22;13887;57.196;-2.100;2022-11-20T15:44:05;8.62;86.07
22069;DHT22;13887;57.196;-2.100;2022-11-20T15:46:36;8.62;85.84
22069;DHT22;13887;57.196;-2.100;2022-11-20T15:49:05;8.62;85.99
22069;DHT22;13887;57.196;-2.100;2022-11-20T15:51:37;8.61;86.07
22069;DHT22;13887;57.196;-2.100;2022-11-20T15:54:20;8.59;86.15
22069;DHT22;13887;57.196;-2.100;2022-11-20T15:56:51;8.60;86.01
22069;DHT22;13887;57.196;-2.100;2022-11-20T15:59:19;8.59;86.00
22069;DHT22;13887;57.196;-2.100;2022-11-20T16:01:45;8.57;85.88
22069;DHT22;13887;57.196;-2.100;2022-11-20T16:04:14;8.56;85.92
22069;DHT22;13887;57.196;-2.100;2022-11-20T16:06:42;8.57;85.90
22069;DHT22;13887;57.196;-2.100;2022-11-20T16:09:10;8.57;85.84
22069;DHT22;13887;57.196;-2.100;2022-11-20T16:11:37;8.56;85.76
22069;DHT22;13887;57.196;-2.100;2022-11-20T16:14:04;8.55;85.73
22069;DHT22;13887;57.196;-2.100;2022-11-20T16:16:51;8.55;85.47
22069;DHT22;13887;57.196;-2.100;2022-11-20T16:19:18;8.50;85.61
22069;DHT22;13887;57.196;-2.100;2022-11-20T16:21:45;8.49;85.57
22069;DHT22;13887;57.196;-2.100;2022-11-20T16:24:13;8.49;85.65
22069;DHT22;13887;57.196;-2.100;2022-11-20T16:26:41;8.49;85.48
22069;DHT22;13887;57.196;-2.100;2022-11-20T16:29:08;8.49;85.52
22069;DHT22;13887;57.196;-2.100;2022-11-20T16:31:36;8.58;85.66
22069;DHT22;13887;57.196;-2.100;2022-11-20T16:34:05;8.64;85.74
22069;DHT22;13887;57.196;-2.100;2022-11-20T16:36:49;8.73;85.72
22069;DHT22;13887;57.196;-2.100;2022-11-20T16:39:16;8.68;85.41
22069;DHT22;13887;57.196;-2.100;2022-11-20T16:41:49;8.64;85.66
22069;DHT22;13887;57.196;-2.100;2022-11-20T16:44:16;8.56;85.94
22069;DHT22;13887;57.196;-2.100;2022-11-20T16:46:42;8.52;86.03
22069;DHT22;13887;57.196;-2.100;2022-11-20T16:49:13;8.48;85.95
22069;DHT22;13887;57.196;-2.100;2022-11-20T16:51:40;8.46;85.72
22069;DHT22;13887;57.196;-2.100;2022-11-20T16:54:09;8.46;85.63
22069;DHT22;13887;57.196;-2.100;2022-11-20T16:56:36;8.44;85.61
22069;DHT22;13887;57.196;-2.100;2022-11-20T16:59:03;8.43;85.63
22069;DHT22;13887;57.196;-2.100;2022-11-20T17:01:30;8.44;85.49
22069;DHT22;13887;57.196;-2.100;2022-11-20T17:04:03;8.41;85.49
22069;DHT22;13887;57.196;-2.100;2022-11-20T17:06:32;8.41;85.46
22069;DHT22;13887;57.196;-2.100;2022-11-20T17:09:00;8.04;85.34
22069;DHT22;13887;57.196;-2.100;2022-11-20T17:11:27;8.23;85.16
22069;DHT22;13887;57.196;-2.100;2022-11-20T17:13:57;8.29;84.93
22069;DHT22;13887;57.196;-2.100;2022-11-20T17:16:29;8.31;84.92
22069;DHT22;13887;57.196;-2.100;2022-11-20T17:18:58;8.30;84.75
22069;DHT22;13887;57.196;-2.100;2022-11-20T17:21:32;8.29;84.68
22069;DHT22;13887;57.196;-2.100;2022-11-20T17:24:06;8.30;84.33
22069;DHT22;13887;57.196;-2.100;2022-11-20T17:26:35;8.29;83.97
22069;DHT22;13887;57.196;-2.100;2022-11-20T17:29:11;8.27;84.46
22069;DHT22;13887;57.196;-2.100;2022-11-20T17:31:38;8.26;84.51
22069;DHT22;13887;57.196;-2.100;2022-11-20T17:34:07;8.26;84.17
22069;DHT22;13887;57.196;-2.100;2022-11-20T17:36:36;8.27;84.21
22069;DHT22;13887;57.196;-2.100;2022-11-20T17:39:12;8.26;84.27
22069;DHT22;13887;57.196;-2.100;2022-11-20T17:41:39;8.27;83.95